Terminal Aerodrome Forecast
Issued by NWS

Home | Current Version | Previous Version | Text Only | Print | Product List | Glossary On
Versions: 1 2 3 4 5 6 7 8 9 10 11 12 13 14 15
000
FTUS42 KMLB 202344
TAFFPR
TAF
KFPR 202344Z 2100/2124 10007KT P6SM VCSH SCT015 SCT120 BKN200
     FM210400 09005KT P6SM SCT020
     FM211500 10010KT P6SM SCT025
     FM211700 10013G19KT P6SM SCT025=

USA.gov is the U.S. government's official web portal to all federal, state and local government web resources and services.